Time;durP1;ratioP1;P1;durP2;ratioP2;P2;SDS_P1;SDS_P2;PMS_P1;PMS_P2;Temp;Humidity;BMP_temperature;BMP_pressure;BME280_temperature;BME280_humidity;BME280_pressure;Samples;Min_cycle;Max_cycle;Signal;HPM_P1;HPM_P2
2022/06/12 00:00:48;;;;;;;1.00;1.00;;;;;17.60;98871.00;;;;5096808;28;20197;-75
2022/06/12 00:03:17;;;;;;;0.60;0.60;;;;;17.60;98877.00;;;;5096556;28;20222;-76
2022/06/12 00:05:48;;;;;;;1.47;1.43;;;;;17.60;98878.00;;;;5096485;28;20576;-76
2022/06/12 00:08:16;;;;;;;0.70;0.70;;;;;17.50;98877.00;;;;5096664;28;20202;-75
2022/06/12 00:10:46;;;;;;;0.77;0.77;;;;;17.40;98876.00;;;;5096687;28;20183;-77
2022/06/12 00:13:21;;;;;;;0.70;0.70;;;;;17.30;98882.00;;;;5096744;28;20203;-75
2022/06/12 00:15:48;;;;;;;0.80;0.80;;;;;17.20;98877.00;;;;5096398;28;20558;-74
2022/06/12 00:18:15;;;;;;;0.70;0.70;;;;;17.20;98876.00;;;;5096659;28;20644;-76
2022/06/12 00:20:44;;;;;;;0.83;0.83;;;;;17.10;98877.00;;;;5096235;28;20198;-77
2022/06/12 00:23:15;;;;;;;0.83;0.83;;;;;17.20;98880.00;;;;5096266;28;20876;-76
2022/06/12 00:25:43;;;;;;;14.73;1.17;;;;;17.20;98867.00;;;;5096153;28;20277;-76
2022/06/12 00:28:09;;;;;;;0.97;0.97;;;;;17.20;98880.00;;;;5096218;28;20230;-75
2022/06/12 00:30:37;;;;;;;0.90;0.90;;;;;17.20;98868.00;;;;5096235;28;20198;-76
2022/06/12 00:33:05;;;;;;;1.00;1.00;;;;;17.00;98875.00;;;;5096300;28;20230;-76
2022/06/12 00:35:34;;;;;;;0.83;0.83;;;;;17.00;98866.00;;;;5096301;28;20240;-76
2022/06/12 00:38:02;;;;;;;1.17;1.10;;;;;16.90;98867.00;;;;5096534;28;20248;-76
2022/06/12 00:40:30;;;;;;;0.83;0.83;;;;;16.90;98866.00;;;;5096429;28;20230;-77
2022/06/12 00:43:01;;;;;;;1.57;1.47;;;;;16.90;98870.00;;;;5097824;28;20198;-76
2022/06/12 00:45:43;;;;;;;0.60;0.60;;;;;17.00;98867.00;;;;5098066;28;20224;-77
2022/06/12 00:48:12;;;;;;;0.97;0.97;;;;;17.00;98863.00;;;;5099460;28;20208;-77
2022/06/12 00:50:44;;;;;;;1.77;1.17;;;;;17.00;98864.00;;;;5098007;28;20671;-77
2022/06/12 00:53:15;;;;;;;1.23;1.23;;;;;16.80;98871.00;;;;5098060;28;20669;-76
2022/06/12 00:55:49;;;;;;;0.70;0.70;;;;;16.80;98866.00;;;;5085905;28;20233;-76
2022/06/12 00:58:20;;;;;;;1.10;1.10;;;;;16.80;98870.00;;;;5096210;28;20218;-77
2022/06/12 01:00:48;;;;;;;0.70;0.70;;;;;16.70;98870.00;;;;5095752;28;20307;-76
2022/06/12 01:03:16;;;;;;;1.27;1.20;;;;;16.50;98873.00;;;;5095603;28;20191;-76
2022/06/12 01:08:29;;;;;;;4.50;1.90;;;;;16.50;98867.00;;;;5095642;28;20199;-76
2022/06/12 01:11:00;;;;;;;0.60;0.60;;;;;16.40;98865.00;;;;5095333;28;20214;-76
2022/06/12 01:13:32;;;;;;;4.90;1.17;;;;;16.50;98872.00;;;;5095625;28;20201;-76
2022/06/12 01:16:03;;;;;;;0.80;0.80;;;;;16.40;98864.00;;;;5078015;28;20547;-76
2022/06/12 01:18:34;;;;;;;0.90;0.90;;;;;16.50;98864.00;;;;5095443;28;20227;-76
2022/06/12 01:21:17;;;;;;;2.87;1.47;;;;;16.40;98861.00;;;;5077580;28;20530;-76
2022/06/12 01:24:19;;;;;;;2.20;1.83;;;;;16.40;98864.00;;;;5095331;28;20313;-76
2022/06/12 01:27:17;;;;;;;0.80;0.80;;;;;16.20;98860.00;;;;5095311;28;20202;-77
2022/06/12 01:29:55;;;;;;;0.80;0.80;;;;;16.30;98859.00;;;;5064067;28;20301;-76
2022/06/12 01:32:29;;;;;;;1.80;1.10;;;;;16.20;98859.00;;;;5095079;28;20656;-76
2022/06/12 01:35:03;;;;;;;1.80;1.43;;;;;16.20;98857.00;;;;5095113;28;20217;-76
2022/06/12 01:37:39;;;;;;;0.93;0.93;;;;;16.30;98859.00;;;;5095139;28;20239;-76
2022/06/12 01:40:16;;;;;;;1.20;1.10;;;;;16.30;98863.00;;;;5095075;28;20207;-76
2022/06/12 01:42:50;;;;;;;0.70;0.70;;;;;16.20;98859.00;;;;5077392;28;20270;-76
2022/06/12 01:45:31;;;;;;;1.23;1.23;;;;;16.20;98853.00;;;;5077507;28;20202;-76
2022/06/12 01:48:04;;;;;;;1.10;1.10;;;;;16.10;98855.00;;;;5095120;28;20218;-76
2022/06/12 01:50:40;;;;;;;1.00;1.00;;;;;16.10;98853.00;;;;5095010;28;20206;-76
2022/06/12 01:53:13;;;;;;;0.50;0.50;;;;;16.10;98859.00;;;;5094817;28;20201;-77
2022/06/12 01:55:47;;;;;;;0.83;0.83;;;;;16.30;98851.00;;;;5094906;28;20264;-76
2022/06/12 01:58:18;;;;;;;0.70;0.70;;;;;16.10;98857.00;;;;5094805;28;20278;-76
2022/06/12 02:00:52;;;;;;;1.13;0.60;;;;;16.10;98844.00;;;;5094763;28;20219;-76
2022/06/12 02:03:28;;;;;;;2.93;1.30;;;;;16.10;98845.00;;;;5094652;28;20199;-76
2022/06/12 02:06:00;;;;;;;1.17;1.00;;;;;16.10;98832.00;;;;5094395;28;20275;-76
2022/06/12 02:08:33;;;;;;;1.17;1.17;;;;;16.10;98838.00;;;;5094590;28;20218;-77
2022/06/12 02:13:53;;;;;;;0.73;0.73;;;;;16.00;98838.00;;;;5093933;28;20517;-75
2022/06/12 02:16:27;;;;;;;0.80;0.80;;;;;15.90;98838.00;;;;5094659;28;20211;-76
2022/06/12 02:18:58;;;;;;;0.93;0.93;;;;;15.90;98844.00;;;;5094386;28;20210;-75
2022/06/12 02:21:28;;;;;;;1.00;1.00;;;;;15.90;98840.00;;;;5094520;28;20546;-76
2022/06/12 02:23:59;;;;;;;0.60;0.60;;;;;16.00;98840.00;;;;5094384;28;20244;-76
2022/06/12 02:26:40;;;;;;;0.60;0.60;;;;;15.80;98843.00;;;;5094231;28;20261;-76
2022/06/12 02:29:14;;;;;;;1.63;1.53;;;;;15.70;98845.00;;;;5094269;28;20209;-76
2022/06/12 02:31:45;;;;;;;1.27;1.27;;;;;15.80;98844.00;;;;5094222;28;20618;-76
2022/06/12 02:34:16;;;;;;;0.80;0.80;;;;;15.90;98843.00;;;;5094243;28;20286;-76
2022/06/12 02:36:46;;;;;;;1.23;1.23;;;;;15.90;98835.00;;;;5094093;28;20218;-75
2022/06/12 02:39:18;;;;;;;0.90;0.90;;;;;16.00;98838.00;;;;5094101;28;20205;-74
2022/06/12 02:41:49;;;;;;;1.90;1.80;;;;;15.90;98848.00;;;;5094292;28;20226;-76
2022/06/12 02:44:20;;;;;;;1.70;1.60;;;;;15.80;98851.00;;;;5094126;28;20231;-76
2022/06/12 02:46:55;;;;;;;0.60;0.60;;;;;15.70;98846.00;;;;5094053;28;20273;-76
2022/06/12 02:49:22;;;;;;;1.10;1.10;;;;;15.80;98843.00;;;;5094025;28;20253;-76
2022/06/12 02:51:55;;;;;;;1.00;1.00;;;;;15.80;98844.00;;;;5094023;28;20725;-76
2022/06/12 02:54:31;;;;;;;1.07;1.07;;;;;15.70;98843.00;;;;5093848;28;20527;-76
2022/06/12 02:57:08;;;;;;;1.30;1.30;;;;;15.70;98835.00;;;;5093943;28;20198;-76
2022/06/12 02:59:45;;;;;;;0.87;0.87;;;;;15.80;98840.00;;;;5093857;28;20323;-76
2022/06/12 03:02:18;;;;;;;1.33;1.33;;;;;15.80;98833.00;;;;5093813;28;20222;-76
2022/06/12 03:04:54;;;;;;;1.20;1.17;;;;;15.70;98835.00;;;;5093987;28;20618;-77
2022/06/12 03:07:21;;;;;;;0.93;0.93;;;;;15.70;98836.00;;;;5093744;28;20218;-77
2022/06/12 03:09:48;;;;;;;2.47;1.30;;;;;15.70;98836.00;;;;5093724;28;20206;-76
2022/06/12 03:12:17;;;;;;;0.77;0.77;;;;;15.70;98837.00;;;;5093939;28;20194;-77
2022/06/12 03:14:44;;;;;;;1.00;1.00;;;;;15.60;98837.00;;;;5075839;28;20202;-76
2022/06/12 03:17:12;;;;;;;1.00;1.00;;;;;15.60;98837.00;;;;5096111;28;20230;-77
2022/06/12 03:19:45;;;;;;;0.70;0.70;;;;;15.70;98837.00;;;;5097206;28;20233;-76
2022/06/12 03:22:21;;;;;;;1.43;1.33;;;;;15.70;98844.00;;;;5097259;28;20214;-75
2022/06/12 03:25:04;;;;;;;0.70;0.70;;;;;15.70;98839.00;;;;5097645;28;20244;-77
2022/06/12 03:27:48;;;;;;;0.90;0.90;;;;;15.80;98845.00;;;;5097153;28;20199;-77
2022/06/12 03:30:20;;;;;;;1.13;1.13;;;;;15.70;98839.00;;;;5097200;28;20199;-77
2022/06/12 03:32:59;;;;;;;0.70;0.70;;;;;15.70;98840.00;;;;5097181;28;20195;-76
2022/06/12 03:35:42;;;;;;;0.77;0.77;;;;;15.70;98838.00;;;;5097264;28;20210;-76
2022/06/12 03:38:19;;;;;;;0.93;0.93;;;;;15.70;98834.00;;;;5096964;28;20222;-76
2022/06/12 03:40:56;;;;;;;0.97;0.97;;;;;15.60;98838.00;;;;5097009;28;20199;-75
2022/06/12 03:43:31;;;;;;;0.70;0.70;;;;;15.50;98843.00;;;;5096871;28;20214;-76
2022/06/12 03:46:05;;;;;;;0.87;0.87;;;;;15.50;98840.00;;;;5096949;28;20190;-75
2022/06/12 03:48:38;;;;;;;3.93;1.63;;;;;15.50;98844.00;;;;5096740;28;20497;-76
2022/06/12 03:51:13;;;;;;;0.50;0.50;;;;;15.40;98842.00;;;;5079061;28;20730;-76
2022/06/12 03:53:45;;;;;;;0.73;0.73;;;;;15.50;98850.00;;;;5096796;28;20221;-76
2022/06/12 03:59:10;;;;;;;1.57;1.47;;;;;15.50;98840.00;;;;5096959;28;20202;-76
2022/06/12 04:01:38;;;;;;;0.97;0.97;;;;;15.60;98848.00;;;;5078741;28;20733;-75
2022/06/12 04:04:06;;;;;;;3.83;1.33;;;;;15.50;98849.00;;;;5096778;28;20260;-76
2022/06/12 04:06:37;;;;;;;1.63;1.53;;;;;15.60;98847.00;;;;5096672;28;20198;-76
2022/06/12 04:09:09;;;;;;;1.27;1.27;;;;;15.40;98848.00;;;;5078623;28;20229;-76
2022/06/12 04:11:39;;;;;;;1.00;1.00;;;;;15.50;98846.00;;;;5096568;28;20289;-75
2022/06/12 04:14:15;;;;;;;1.00;1.00;;;;;15.60;98846.00;;;;5096441;28;20195;-76
2022/06/12 04:16:47;;;;;;;2.43;1.63;;;;;15.60;98855.00;;;;5096474;28;20203;-75
2022/06/12 04:19:17;;;;;;;1.00;1.00;;;;;15.70;98860.00;;;;5096548;28;20207;-76
2022/06/12 04:21:50;;;;;;;1.37;1.37;;;;;15.70;98853.00;;;;5096622;28;20594;-76
2022/06/12 04:24:23;;;;;;;2.83;1.63;;;;;15.70;98854.00;;;;5096496;28;20230;-76
2022/06/12 04:26:54;;;;;;;1.63;1.53;;;;;15.70;98859.00;;;;5096378;28;20210;-76
2022/06/12 04:29:25;;;;;;;0.90;0.90;;;;;15.70;98848.00;;;;5078591;28;20202;-75
2022/06/12 04:31:55;;;;;;;0.90;0.90;;;;;15.80;98858.00;;;;5096391;28;20198;-76
2022/06/12 04:34:24;;;;;;;1.17;1.17;;;;;15.80;98855.00;;;;5096151;28;20187;-76
2022/06/12 04:36:54;;;;;;;1.00;1.00;;;;;15.80;98861.00;;;;5096219;28;20195;-77
2022/06/12 04:39:24;;;;;;;0.90;0.90;;;;;15.70;98863.00;;;;5096736;28;20222;-76
2022/06/12 04:41:51;;;;;;;0.77;0.77;;;;;15.90;98861.00;;;;5096006;28;20218;-77
2022/06/12 04:44:19;;;;;;;1.57;1.47;;;;;16.00;98864.00;;;;5096135;28;20229;-76
2022/06/12 04:46:49;;;;;;;0.60;0.60;;;;;16.00;98859.00;;;;5095829;28;20206;-76
2022/06/12 04:49:20;;;;;;;0.93;0.93;;;;;15.90;98867.00;;;;5078190;28;20607;-74
2022/06/12 04:51:51;;;;;;;1.03;1.03;;;;;15.90;98865.00;;;;5077925;28;20230;-74
2022/06/12 04:54:19;;;;;;;0.70;0.70;;;;;16.10;98865.00;;;;5095742;28;20195;-76
2022/06/12 04:56:47;;;;;;;0.77;0.77;;;;;16.10;98857.00;;;;5077968;28;20604;-75
2022/06/12 04:59:16;;;;;;;0.90;0.90;;;;;16.20;98865.00;;;;5095720;28;20206;-75
2022/06/12 05:01:44;;;;;;;1.90;1.70;;;;;16.20;98867.00;;;;5077923;28;20226;-76
2022/06/12 05:04:11;;;;;;;1.63;1.53;;;;;16.40;98859.00;;;;5095579;28;20596;-76
2022/06/12 05:06:39;;;;;;;0.90;0.90;;;;;16.40;98868.00;;;;5095487;28;20201;-76
2022/06/12 05:09:08;;;;;;;1.27;1.27;;;;;16.40;98865.00;;;;5095428;28;20182;-76
2022/06/12 05:11:35;;;;;;;0.63;0.63;;;;;16.50;98865.00;;;;5095569;28;20634;-76
2022/06/12 05:14:02;;;;;;;0.70;0.70;;;;;16.50;98866.00;;;;5077803;28;20510;-76
2022/06/12 05:16:34;;;;;;;0.90;0.90;;;;;16.60;98873.00;;;;5095356;28;20215;-76
2022/06/12 05:19:02;;;;;;;0.87;0.80;;;;;16.50;98870.00;;;;5095540;28;20194;-76
2022/06/12 05:21:30;;;;;;;1.10;0.97;;;;;16.60;98867.00;;;;5095274;28;20194;-76
2022/06/12 05:24:00;;;;;;;0.70;0.70;;;;;16.70;98870.00;;;;5077585;28;20198;-75
2022/06/12 05:26:33;;;;;;;1.20;1.20;;;;;16.70;98871.00;;;;5095364;28;20195;-76
2022/06/12 05:29:01;;;;;;;0.90;0.90;;;;;16.80;98869.00;;;;5095080;28;20601;-74
2022/06/12 05:31:28;;;;;;;0.60;0.60;;;;;16.90;98871.00;;;;5095184;28;20260;-76
2022/06/12 05:33:55;;;;;;;3.30;1.90;;;;;17.00;98867.00;;;;5095060;28;20226;-76
2022/06/12 05:36:23;;;;;;;1.50;1.40;;;;;17.00;98870.00;;;;5095215;28;20555;-75
2022/06/12 05:38:50;;;;;;;1.00;1.00;;;;;17.10;98858.00;;;;5094399;28;20201;-76
2022/06/12 05:41:18;;;;;;;4.40;1.63;;;;;17.10;98859.00;;;;5094958;28;20187;-76
2022/06/12 05:43:46;;;;;;;0.70;0.70;;;;;17.20;98856.00;;;;5095317;28;20182;-76
2022/06/12 05:46:15;;;;;;;1.10;1.07;;;;;17.30;98866.00;;;;5094880;28;20230;-76
2022/06/12 05:48:43;;;;;;;1.07;1.07;;;;;17.40;98873.00;;;;5094955;28;20256;-76
2022/06/12 05:51:13;;;;;;;0.70;0.70;;;;;17.50;98862.00;;;;5094893;28;20273;-75
2022/06/12 05:53:40;;;;;;;0.70;0.70;;;;;17.60;98861.00;;;;5094929;28;20198;-76
2022/06/12 05:56:07;;;;;;;1.40;1.30;;;;;17.70;98867.00;;;;5094697;28;20221;-76
2022/06/12 05:58:36;;;;;;;0.77;0.77;;;;;17.80;98863.00;;;;5094628;28;20215;-76
2022/06/12 06:01:04;;;;;;;0.70;0.70;;;;;17.80;98865.00;;;;5094788;28;20207;-76
2022/06/12 06:03:34;;;;;;;1.10;1.10;;;;;17.80;98863.00;;;;5094656;28;20653;-76
2022/06/12 06:06:01;;;;;;;1.50;1.50;;;;;17.90;98855.00;;;;5094701;28;20186;-76
2022/06/12 06:08:28;;;;;;;1.77;1.67;;;;;18.10;98866.00;;;;5094615;28;20187;-76
2022/06/12 06:10:55;;;;;;;0.83;0.83;;;;;18.10;98864.00;;;;5094516;28;20237;-76
2022/06/12 06:13:25;;;;;;;0.83;0.83;;;;;18.20;98868.00;;;;5094647;28;20593;-76
2022/06/12 06:15:52;;;;;;;1.00;1.00;;;;;18.20;98860.00;;;;5094519;28;20286;-76
2022/06/12 06:18:20;;;;;;;0.77;0.77;;;;;18.30;98868.00;;;;5094429;28;20221;-76
2022/06/12 06:20:49;;;;;;;1.07;1.07;;;;;18.40;98860.00;;;;5094429;28;20686;-76
2022/06/12 06:23:17;;;;;;;0.70;0.70;;;;;18.50;98872.00;;;;5094414;28;20234;-76
2022/06/12 06:25:44;;;;;;;0.90;0.90;;;;;18.50;98871.00;;;;5076484;28;20540;-76
2022/06/12 06:28:14;;;;;;;0.70;0.70;;;;;18.70;98870.00;;;;5094423;28;20198;-76
2022/06/12 06:30:44;;;;;;;0.80;0.80;;;;;18.70;98867.00;;;;5094447;28;20210;-76
2022/06/12 06:33:13;;;;;;;0.80;0.80;;;;;18.80;98876.00;;;;5094520;28;20255;-76
2022/06/12 06:35:40;;;;;;;1.17;1.10;;;;;18.80;98876.00;;;;5094155;28;20286;-76
2022/06/12 06:38:08;;;;;;;0.80;0.80;;;;;18.90;98869.00;;;;5094102;28;20198;-76
2022/06/12 06:40:36;;;;;;;0.60;0.60;;;;;19.00;98869.00;;;;5094162;28;20195;-76
2022/06/12 06:43:02;;;;;;;0.70;0.70;;;;;19.10;98877.00;;;;5094079;28;20226;-76
2022/06/12 06:48:14;;;;;;;1.40;1.30;;;;;19.30;98876.00;;;;5094009;28;20850;-76
2022/06/12 06:50:42;;;;;;;0.60;0.60;;;;;19.50;98874.00;;;;5092883;28;20187;-76
2022/06/12 06:53:09;;;;;;;0.70;0.70;;;;;19.60;98881.00;;;;5076181;28;20231;-76
2022/06/12 06:55:36;;;;;;;0.60;0.60;;;;;19.60;98882.00;;;;5093886;28;20541;-76
2022/06/12 06:58:08;;;;;;;0.80;0.80;;;;;19.70;98874.00;;;;5093892;28;20206;-76
2022/06/12 07:00:39;;;;;;;0.57;0.57;;;;;19.80;98877.00;;;;5093784;28;20234;-76
2022/06/12 07:03:09;;;;;;;1.10;1.10;;;;;19.80;98878.00;;;;5093767;28;20307;-75
2022/06/12 07:05:37;;;;;;;1.83;0.83;;;;;19.90;98875.00;;;;5093681;28;20194;-76
2022/06/12 07:08:05;;;;;;;0.73;0.73;;;;;20.00;98882.00;;;;5093754;28;20215;-77
2022/06/12 07:10:34;;;;;;;0.93;0.93;;;;;20.10;98876.00;;;;5094231;28;20195;-76
2022/06/12 07:13:01;;;;;;;0.67;0.67;;;;;20.20;98877.00;;;;5093735;28;20218;-76
2022/06/12 07:15:30;;;;;;;0.50;0.50;;;;;20.20;98880.00;;;;5093774;28;20191;-76
2022/06/12 07:17:58;;;;;;;0.50;0.50;;;;;20.30;98872.00;;;;5093571;28;20187;-76
2022/06/12 07:20:28;;;;;;;0.83;0.80;;;;;20.40;98883.00;;;;5093736;28;20241;-76
2022/06/12 07:22:55;;;;;;;0.73;0.73;;;;;20.50;98872.00;;;;5093929;28;20359;-76
2022/06/12 07:25:24;;;;;;;0.80;0.80;;;;;20.50;98882.00;;;;5093444;28;20226;-76
2022/06/12 07:27:51;;;;;;;1.48;1.00;;;;;20.60;98870.00;;;;5093474;28;20202;-74
2022/06/12 07:30:22;;;;;;;0.70;0.70;;;;;20.80;98864.00;;;;5093383;28;20229;-75
2022/06/12 07:32:51;;;;;;;0.80;0.80;;;;;20.80;98874.00;;;;5093509;28;20211;-76
2022/06/12 07:35:20;;;;;;;0.93;0.93;;;;;20.80;98872.00;;;;5093427;28;20195;-75
2022/06/12 07:37:47;;;;;;;0.50;0.50;;;;;20.90;98872.00;;;;5093405;28;20191;-76
2022/06/12 07:40:18;;;;;;;0.70;0.70;;;;;20.90;98867.00;;;;5093194;28;20187;-76
2022/06/12 07:42:45;;;;;;;0.60;0.60;;;;;21.00;98864.00;;;;5093211;28;20295;-77
2022/06/12 07:45:13;;;;;;;0.75;0.75;;;;;21.10;98860.00;;;;5093353;28;20201;-78
2022/06/12 07:47:39;;;;;;;0.60;0.60;;;;;21.30;98862.00;;;;5093132;28;20197;-76
2022/06/12 07:50:08;;;;;;;0.60;0.60;;;;;21.40;98858.00;;;;5075643;28;20217;-77
2022/06/12 07:52:36;;;;;;;0.65;0.65;;;;;21.50;98861.00;;;;5093292;28;20198;-77
2022/06/12 07:55:04;;;;;;;0.77;0.77;;;;;21.60;98852.00;;;;5093281;28;20219;-76
2022/06/12 07:57:31;;;;;;;2.25;1.63;;;;;21.60;98845.00;;;;5093141;28;20210;-74
2022/06/12 07:59:58;;;;;;;0.50;0.50;;;;;21.70;98853.00;;;;5093072;28;20222;-76
2022/06/12 08:02:25;;;;;;;0.85;0.85;;;;;21.80;98850.00;;;;5094182;28;20341;-75
2022/06/12 08:04:52;;;;;;;0.70;0.70;;;;;21.90;98842.00;;;;5079102;28;20199;-77
2022/06/12 08:07:19;;;;;;;0.57;0.57;;;;;22.00;98851.00;;;;5096672;28;20207;-76
2022/06/12 08:09:46;;;;;;;1.23;1.15;;;;;22.10;98847.00;;;;5097007;28;20202;-76
2022/06/12 08:12:15;;;;;;;0.90;0.90;;;;;22.20;98850.00;;;;5099068;28;20218;-71
2022/06/12 08:14:42;;;;;;;0.45;0.45;;;;;22.30;98856.00;;;;5079294;28;20695;-71
2022/06/12 08:17:10;;;;;;;0.55;0.55;;;;;22.50;98861.00;;;;5096457;28;20214;-71
2022/06/12 08:22:23;;;;;;;0.82;0.82;;;;;22.60;98848.00;;;;5096239;28;20284;-78
2022/06/12 08:24:50;;;;;;;0.93;0.93;;;;;22.70;98850.00;;;;5096321;28;20207;-75
2022/06/12 08:27:17;;;;;;;0.60;0.60;;;;;22.80;98860.00;;;;5097251;28;20225;-76
2022/06/12 08:29:44;;;;;;;0.60;0.60;;;;;22.90;98849.00;;;;5078418;28;20591;-74
2022/06/12 08:32:16;;;;;;;0.68;0.68;;;;;23.00;98848.00;;;;5096508;28;20226;-74
2022/06/12 08:34:48;;;;;;;0.70;0.70;;;;;23.10;98852.00;;;;5096776;28;20195;-76
2022/06/12 08:37:18;;;;;;;2.42;1.52;;;;;23.10;98846.00;;;;5096040;28;20223;-75
2022/06/12 08:39:46;;;;;;;0.80;0.80;;;;;23.40;98844.00;;;;5096364;28;20195;-75
2022/06/12 08:42:19;;;;;;;0.60;0.60;;;;;23.40;98842.00;;;;5095789;28;20222;-74
2022/06/12 08:44:52;;;;;;;0.60;0.60;;;;;23.30;98846.00;;;;5096058;28;20186;-73
2022/06/12 08:47:27;;;;;;;1.17;1.05;;;;;23.40;98838.00;;;;5095845;28;20650;-73
2022/06/12 08:50:04;;;;;;;0.75;0.75;;;;;23.60;98836.00;;;;5095842;28;20302;-72
2022/06/12 08:52:36;;;;;;;0.50;0.50;;;;;23.60;98831.00;;;;5095759;28;20222;-72
2022/06/12 08:55:14;;;;;;;0.50;0.50;;;;;23.80;98840.00;;;;5095723;28;20277;-72
2022/06/12 08:57:49;;;;;;;0.75;0.75;;;;;23.90;98836.00;;;;5095677;28;20550;-75
2022/06/12 09:00:19;;;;;;;0.70;0.70;;;;;24.00;98833.00;;;;5095814;28;20259;-75
2022/06/12 09:02:47;;;;;;;1.02;1.02;;;;;24.10;98827.00;;;;5095616;28;20295;-75
2022/06/12 09:05:16;;;;;;;0.90;0.90;;;;;24.20;98833.00;;;;5095595;28;20256;-74
2022/06/12 09:07:50;;;;;;;0.50;0.50;;;;;24.20;98824.00;;;;5095509;28;20213;-73
2022/06/12 09:10:29;;;;;;;1.17;1.17;;;;;24.10;98827.00;;;;5095524;28;20281;-71
2022/06/12 09:13:02;;;;;;;0.60;0.60;;;;;24.20;98820.00;;;;5095480;28;20234;-72
2022/06/12 09:15:38;;;;;;;0.70;0.70;;;;;24.20;98818.00;;;;5076823;28;20198;-72
2022/06/12 09:18:14;;;;;;;0.75;0.75;;;;;24.30;98816.00;;;;5095352;28;20218;-72
2022/06/12 09:20:48;;;;;;;0.63;0.63;;;;;24.30;98819.00;;;;5095286;28;20201;-72
2022/06/12 09:23:25;;;;;;;1.33;1.25;;;;;24.50;98823.00;;;;5095092;28;20218;-73
2022/06/12 09:25:57;;;;;;;0.68;0.68;;;;;24.60;98821.00;;;;5095296;28;20232;-73
2022/06/12 09:28:35;;;;;;;1.25;1.15;;;;;24.80;98815.00;;;;5095154;28;20198;-75
2022/06/12 09:31:08;;;;;;;0.65;0.65;;;;;24.90;98819.00;;;;5095219;28;20625;-74
2022/06/12 09:33:43;;;;;;;1.45;0.95;;;;;25.00;98817.00;;;;5095271;28;20199;-73
2022/06/12 09:36:27;;;;;;;0.55;0.55;;;;;25.10;98814.00;;;;5095130;28;20232;-74
2022/06/12 09:39:04;;;;;;;0.52;0.52;;;;;25.20;98818.00;;;;5094894;28;20215;-75
2022/06/12 09:41:46;;;;;;;1.30;1.20;;;;;25.40;98811.00;;;;5094905;28;20202;-74
2022/06/12 09:44:17;;;;;;;0.88;0.88;;;;;25.30;98815.00;;;;5077025;28;20234;-72
2022/06/12 09:47:00;;;;;;;0.40;0.40;;;;;25.30;98811.00;;;;5095108;28;20203;-72
2022/06/12 09:49:39;;;;;;;0.60;0.60;;;;;25.30;98809.00;;;;5095032;28;20218;-72
2022/06/12 09:52:41;;;;;;;0.80;0.80;;;;;25.40;98808.00;;;;5095118;28;20218;-72
2022/06/12 09:55:14;;;;;;;0.50;0.50;;;;;25.40;98792.00;;;;5093808;28;20249;-70
2022/06/12 09:57:45;;;;;;;0.77;0.77;;;;;25.50;98799.00;;;;5094736;28;20191;-72
2022/06/12 10:00:17;;;;;;;0.73;0.73;;;;;25.80;98787.00;;;;5094879;28;20696;-75
2022/06/12 10:02:55;;;;;;;0.70;0.70;;;;;26.00;98785.00;;;;5094823;28;20309;-75
2022/06/12 10:05:28;;;;;;;0.80;0.80;;;;;26.20;98785.00;;;;5094480;28;20218;-73
2022/06/12 10:08:05;;;;;;;0.55;0.55;;;;;26.30;98786.00;;;;5076912;28;20191;-72
2022/06/12 10:10:39;;;;;;;0.43;0.43;;;;;26.50;98784.00;;;;5094593;28;20198;-73
2022/06/12 10:13:09;;;;;;;1.00;1.00;;;;;26.70;98783.00;;;;5094899;28;20281;-72
2022/06/12 10:15:40;;;;;;;0.70;0.70;;;;;26.80;98779.00;;;;5094454;28;20672;-72
2022/06/12 10:18:12;;;;;;;0.65;0.65;;;;;26.80;98777.00;;;;5094173;28;20270;-72
2022/06/12 10:20:43;;;;;;;0.70;0.70;;;;;26.80;98778.00;;;;5095739;28;20528;-72
2022/06/12 10:23:13;;;;;;;0.85;0.85;;;;;26.80;98783.00;;;;5095506;28;20233;-72
2022/06/12 10:25:46;;;;;;;0.98;0.98;;;;;26.90;98781.00;;;;5094386;28;20221;-73
2022/06/12 10:28:25;;;;;;;0.80;0.80;;;;;26.90;98779.00;;;;5077023;28;20306;-71
2022/06/12 10:31:19;;;;;;;1.13;1.13;;;;;27.00;98773.00;;;;5076565;28;20505;-71
2022/06/12 10:33:50;;;;;;;0.60;0.60;;;;;27.10;98776.00;;;;5072446;28;20286;-71
2022/06/12 10:36:27;;;;;;;0.70;0.70;;;;;27.30;98764.00;;;;5094271;28;20268;-72
2022/06/12 10:39:07;;;;;;;0.60;0.60;;;;;27.50;98771.00;;;;5094078;28;20222;-73
2022/06/12 10:41:41;;;;;;;1.08;1.08;;;;;27.50;98769.00;;;;5094094;28;20202;-71
2022/06/12 10:44:28;;;;;;;0.60;0.60;;;;;27.80;98759.00;;;;5076200;28;20234;-71
2022/06/12 10:46:55;;;;;;;0.50;0.50;;;;;27.90;98761.00;;;;5094189;28;20221;-71
2022/06/12 10:49:24;;;;;;;0.80;0.80;;;;;27.60;98748.00;;;;5093892;28;20517;-71
2022/06/12 10:52:03;;;;;;;0.65;0.65;;;;;27.80;98745.00;;;;5093919;28;20703;-72
2022/06/12 10:54:32;;;;;;;0.82;0.82;;;;;27.90;98752.00;;;;5093963;28;20263;-72
2022/06/12 10:57:10;;;;;;;0.50;0.50;;;;;28.00;98749.00;;;;5093832;28;20299;-72
2022/06/12 10:59:39;;;;;;;0.65;0.65;;;;;28.20;98738.00;;;;5093941;28;20198;-72
2022/06/12 11:02:35;;;;;;;0.70;0.70;;;;;28.40;98738.00;;;;5093846;28;20234;-72
2022/06/12 11:05:15;;;;;;;0.60;0.60;;;;;28.30;98738.00;;;;5093743;28;20419;-72
2022/06/12 11:07:50;;;;;;;0.70;0.70;;;;;28.50;98735.00;;;;5093645;28;20218;-72
2022/06/12 11:10:29;;;;;;;0.68;0.68;;;;;28.60;98733.00;;;;5093735;28;20194;-72
2022/06/12 11:13:20;;;;;;;1.20;1.10;;;;;28.80;98728.00;;;;5093638;28;20254;-72
2022/06/12 11:16:16;;;;;;;1.13;1.13;;;;;29.20;98728.00;;;;5093655;28;20205;-72
2022/06/12 11:18:54;;;;;;;0.77;0.77;;;;;29.20;98729.00;;;;5093638;28;20704;-72
2022/06/12 11:21:29;;;;;;;0.63;0.63;;;;;29.20;98725.00;;;;5093582;28;20198;-71
2022/06/12 11:24:11;;;;;;;0.70;0.70;;;;;29.20;98718.00;;;;5094292;28;20741;-72
2022/06/12 11:26:59;;;;;;;0.68;0.68;;;;;29.20;98718.00;;;;5093588;28;20191;-72
2022/06/12 11:29:39;;;;;;;0.57;0.57;;;;;29.00;98718.00;;;;5093465;28;20215;-72
2022/06/12 11:32:18;;;;;;;0.70;0.70;;;;;29.00;98716.00;;;;5093533;28;20199;-72
2022/06/12 11:35:03;;;;;;;0.80;0.80;;;;;29.20;98713.00;;;;5093299;28;20225;-72
2022/06/12 11:37:43;;;;;;;0.50;0.50;;;;;29.40;98711.00;;;;5094511;28;20249;-72
2022/06/12 11:40:17;;;;;;;0.77;0.77;;;;;29.70;98713.00;;;;5096955;28;20535;-72
2022/06/12 11:43:00;;;;;;;0.70;0.70;;;;;29.70;98701.00;;;;5097595;28;20217;-73
2022/06/12 11:45:41;;;;;;;0.50;0.50;;;;;29.80;98700.00;;;;5097375;28;20217;-72
2022/06/12 11:48:21;;;;;;;0.75;0.75;;;;;30.10;98695.00;;;;5079408;28;20201;-72
2022/06/12 11:50:56;;;;;;;0.70;0.70;;;;;30.20;98695.00;;;;5078974;28;20564;-72
2022/06/12 11:53:39;;;;;;;0.60;0.60;;;;;30.20;98702.00;;;;5096706;28;20195;-71
2022/06/12 11:56:18;;;;;;;0.70;0.70;;;;;30.20;98696.00;;;;5096681;28;20640;-73
2022/06/12 11:58:55;;;;;;;0.90;0.90;;;;;30.40;98699.00;;;;5096827;28;20175;-72
2022/06/12 12:01:33;;;;;;;1.23;1.23;;;;;30.00;98694.00;;;;5096584;28;20533;-72
2022/06/12 12:04:28;;;;;;;0.73;0.73;;;;;30.00;98685.00;;;;5096765;28;20871;-72
2022/06/12 12:07:12;;;;;;;0.57;0.57;;;;;30.40;98690.00;;;;5096752;28;20183;-72
2022/06/12 12:09:52;;;;;;;1.08;1.08;;;;;30.40;98681.00;;;;5096410;28;20218;-73
2022/06/12 12:12:24;;;;;;;0.73;0.73;;;;;30.60;98679.00;;;;5096535;28;20642;-72
2022/06/12 12:14:53;;;;;;;0.68;0.68;;;;;30.70;98677.00;;;;5096652;28;20218;-72
2022/06/12 12:17:23;;;;;;;0.65;0.65;;;;;31.00;98678.00;;;;5096444;28;20191;-72
2022/06/12 12:19:54;;;;;;;0.80;0.80;;;;;30.80;98671.00;;;;5097057;28;20275;-72
2022/06/12 12:22:33;;;;;;;0.75;0.75;;;;;31.10;98674.00;;;;5096412;28;20250;-72
2022/06/12 12:25:08;;;;;;;1.67;1.10;;;;;31.50;98670.00;;;;5096267;28;20324;-72
2022/06/12 12:27:40;;;;;;;0.63;0.63;;;;;31.60;98675.00;;;;5096096;28;20638;-73
2022/06/12 12:30:16;;;;;;;0.52;0.52;;;;;31.80;98670.00;;;;5078462;28;20251;-72
2022/06/12 12:32:44;;;;;;;1.45;0.90;;;;;31.60;98666.00;;;;5096034;28;20210;-72
2022/06/12 12:41:11;;;;;;;7.50;1.20;;;;;31.80;98658.00;;;;5096094;28;20205;-73
2022/06/12 12:43:33;;;;;;;1.00;1.00;;;;;32.60;98673.00;;;;5095854;28;20223;-73
2022/06/12 12:46:04;;;;;;;0.98;0.98;;;;;32.50;98663.00;;;;5095878;28;20290;-72
2022/06/12 12:48:43;;;;;;;0.57;0.57;;;;;31.90;98645.00;;;;5094843;28;20218;-72
2022/06/12 12:51:10;;;;;;;0.75;0.75;;;;;32.20;98667.00;;;;5078548;28;20307;-72
2022/06/12 12:53:39;;;;;;;1.00;1.00;;;;;32.50;98648.00;;;;5095730;28;20227;-72
2022/06/12 12:56:09;;;;;;;0.75;0.75;;;;;33.10;98651.00;;;;5095812;28;20191;-73
2022/06/12 12:58:39;;;;;;;0.73;0.73;;;;;33.30;98633.00;;;;5095739;28;20219;-72
2022/06/12 13:01:17;;;;;;;0.70;0.70;;;;;33.00;98641.00;;;;5095697;28;20199;-73
2022/06/12 13:03:48;;;;;;;0.70;0.70;;;;;33.30;98641.00;;;;5095497;28;20215;-72